createdAt,value
2022-12-29T00:00:29.443Z,92.96
2022-12-29T00:04:53.220Z,92.93
2022-12-29T00:08:11.678Z,92.89
2022-12-29T00:12:11.674Z,92.86
2022-12-29T00:16:11.018Z,92.84
2022-12-29T00:20:43.268Z,92.84
2022-12-29T00:24:54.646Z,92.83
2022-12-29T00:29:12.775Z,92.82
2022-12-29T00:33:52.638Z,92.84
2022-12-29T00:38:10.591Z,92.88
2022-12-29T00:42:22.599Z,92.89
2022-12-29T00:46:23.049Z,92.92
2022-12-29T00:50:22.272Z,92.94
2022-12-29T00:54:23.388Z,92.97
2022-12-29T00:58:22.869Z,93.03
2022-12-29T01:02:22.914Z,93.08
2022-12-29T01:06:22.678Z,93.11
2022-12-29T01:10:22.127Z,93.13
2022-12-29T01:14:21.971Z,93.15
2022-12-29T01:18:21.545Z,93.18
2022-12-29T01:22:21.728Z,93.19
2022-12-29T01:26:21.816Z,93.22
2022-12-29T01:30:21.334Z,93.24
2022-12-29T01:34:20.947Z,93.27
2022-12-29T01:38:20.653Z,93.29
2022-12-29T01:42:20.840Z,93.30
2022-12-29T01:46:32.961Z,93.34
2022-12-29T01:49:59.413Z,93.35
2022-12-29T01:54:00.253Z,93.35
2022-12-29T01:58:02.268Z,93.37
2022-12-29T02:02:18.084Z,93.38
2022-12-29T02:06:27.026Z,93.39
2022-12-29T02:10:27.655Z,93.39
2022-12-29T02:14:26.935Z,93.40
2022-12-29T02:18:34.751Z,93.44
2022-12-29T02:22:47.604Z,93.46
2022-12-29T02:26:52.876Z,93.44
2022-12-29T02:31:10.289Z,93.45
2022-12-29T02:35:09.771Z,93.46
2022-12-29T02:39:41.331Z,93.43
2022-12-29T02:43:01.458Z,93.43
2022-12-29T02:47:07.287Z,93.41
2022-12-29T02:51:27.077Z,93.42
2022-12-29T02:55:26.673Z,93.43
2022-12-29T02:59:26.195Z,93.46
2022-12-29T03:03:28.649Z,93.47
2022-12-29T03:07:41.477Z,93.46
2022-12-29T03:12:07.307Z,93.45
2022-12-29T03:16:06.654Z,93.45
2022-12-29T03:20:13.334Z,93.44
2022-12-29T03:24:13.752Z,93.45
2022-12-29T03:28:17.091Z,93.47
2022-12-29T03:32:19.012Z,93.51
2022-12-29T03:36:36.805Z,93.53
2022-12-29T03:40:39.774Z,93.51
2022-12-29T03:44:41.157Z,93.53
2022-12-29T03:49:00.345Z,93.56
2022-12-29T03:52:18.954Z,93.50
2022-12-29T03:56:18.555Z,93.39
2022-12-29T04:00:18.293Z,93.40
2022-12-29T04:04:21.478Z,93.43
2022-12-29T04:08:36.191Z,93.40
2022-12-29T04:12:36.093Z,93.46
2022-12-29T04:16:37.007Z,93.51
2022-12-29T04:20:57.254Z,93.54
2022-12-29T04:24:56.575Z,93.57
2022-12-29T04:28:56.387Z,93.61
2022-12-29T04:33:12.073Z,93.65
2022-12-29T04:37:12.778Z,93.64
2022-12-29T04:41:12.826Z,93.65
2022-12-29T04:45:12.875Z,93.67
2022-12-29T04:49:44.526Z,93.69
2022-12-29T04:54:04.188Z,93.69
2022-12-29T04:58:04.882Z,93.70
2022-12-29T05:02:05.912Z,93.70
2022-12-29T05:06:07.039Z,93.70
2022-12-29T05:10:08.354Z,93.71
2022-12-29T05:14:22.229Z,93.75
2022-12-29T05:18:36.099Z,93.79
2022-12-29T05:22:36.381Z,93.83
2022-12-29T05:26:36.874Z,93.85
2022-12-29T05:31:04.683Z,93.83
2022-12-29T05:35:04.454Z,93.81
2022-12-29T05:39:05.660Z,93.81
2022-12-29T05:43:07.071Z,93.76
2022-12-29T05:47:29.401Z,93.70
2022-12-29T05:51:25.475Z,93.75
2022-12-29T05:54:44.256Z,93.79
2022-12-29T05:58:46.400Z,93.80
2022-12-29T06:02:46.091Z,93.77
2022-12-29T06:06:46.069Z,93.75
2022-12-29T06:10:53.541Z,93.73
2022-12-29T06:14:53.057Z,93.70
2022-12-29T06:18:51.996Z,93.68
2022-12-29T06:22:51.434Z,93.65
2022-12-29T06:26:50.454Z,93.57
2022-12-29T06:30:50.463Z,93.49
2022-12-29T06:34:50.726Z,93.42
2022-12-29T06:38:53.540Z,93.34
2022-12-29T06:42:53.163Z,93.27
2022-12-29T06:47:24.740Z,93.19
2022-12-29T06:51:24.019Z,93.12
2022-12-29T06:55:25.278Z,93.03
2022-12-29T06:59:02.203Z,93.00
2022-12-29T07:03:01.500Z,92.91
2022-12-29T07:07:00.961Z,92.86
2022-12-29T07:11:00.084Z,92.83
2022-12-29T07:14:59.697Z,92.80
2022-12-29T07:19:00.773Z,92.76
2022-12-29T07:23:00.115Z,92.67
2022-12-29T07:26:59.840Z,92.59
2022-12-29T07:30:59.143Z,92.49
2022-12-29T07:34:58.629Z,92.40
2022-12-29T07:38:57.922Z,92.30
2022-12-29T07:42:57.322Z,92.27
2022-12-29T07:47:05.014Z,92.21
2022-12-29T07:51:04.793Z,92.23
2022-12-29T07:55:04.164Z,92.21
2022-12-29T07:59:03.823Z,92.19
2022-12-29T08:03:16.623Z,92.19
2022-12-29T08:07:16.584Z,92.19
2022-12-29T08:11:15.735Z,92.16
2022-12-29T08:15:15.157Z,92.17
2022-12-29T08:19:14.744Z,92.16
2022-12-29T08:23:14.658Z,92.14
2022-12-29T08:27:20.465Z,92.14
2022-12-29T08:30:51.923Z,92.14
2022-12-29T08:34:51.738Z,92.18
2022-12-29T08:38:51.316Z,92.06
2022-12-29T08:43:04.084Z,92.00
2022-12-29T08:47:03.338Z,91.97
2022-12-29T08:51:02.337Z,91.93
2022-12-29T08:59:14.732Z,91.94
2022-12-29T09:03:17.192Z,91.97
2022-12-29T09:07:25.830Z,91.99
2022-12-29T09:11:25.767Z,91.99
2022-12-29T09:15:25.003Z,91.96
2022-12-29T09:19:24.229Z,91.95
2022-12-29T09:23:23.591Z,91.96
2022-12-29T09:27:23.462Z,91.96
2022-12-29T09:31:23.841Z,92.00
2022-12-29T09:35:23.541Z,92.04
2022-12-29T09:39:23.861Z,92.07
2022-12-29T09:43:42.072Z,92.11
2022-12-29T09:47:55.791Z,92.13
2022-12-29T09:51:56.559Z,92.14
2022-12-29T09:55:56.924Z,92.15
2022-12-29T10:00:02.447Z,92.10
2022-12-29T10:04:12.383Z,92.07
2022-12-29T10:08:15.754Z,92.06
2022-12-29T10:12:35.549Z,92.07
2022-12-29T10:16:38.304Z,92.12
2022-12-29T10:21:01.959Z,92.12
2022-12-29T10:24:17.955Z,92.11
2022-12-29T10:28:21.071Z,92.12
2022-12-29T10:32:26.957Z,92.09
2022-12-29T10:36:43.326Z,92.09
2022-12-29T10:41:03.216Z,92.07
2022-12-29T10:45:05.910Z,92.10
2022-12-29T10:48:40.253Z,92.10
2022-12-29T10:52:40.657Z,92.14
2022-12-29T10:56:53.427Z,92.15
2022-12-29T11:00:54.895Z,92.09
2022-12-29T11:05:13.024Z,92.09
2022-12-29T11:09:36.612Z,92.10
2022-12-29T11:13:50.120Z,92.13
2022-12-29T11:17:51.569Z,92.15
2022-12-29T11:21:51.092Z,92.03
2022-12-29T11:26:09.052Z,91.62
2022-12-29T11:30:23.720Z,90.95
2022-12-29T11:34:23.074Z,90.72
2022-12-29T11:38:26.854Z,90.67
2022-12-29T11:42:36.592Z,90.61
2022-12-29T11:46:39.431Z,90.62
2022-12-29T11:50:40.661Z,90.70
2022-12-29T11:54:40.042Z,90.78
2022-12-29T11:58:40.019Z,91.01
2022-12-29T12:02:45.751Z,91.10
2022-12-29T12:06:49.333Z,91.22
2022-12-29T12:10:57.703Z,91.24
2022-12-29T12:15:00.847Z,91.28
2022-12-29T12:19:39.260Z,91.24
2022-12-29T12:23:49.677Z,91.21
2022-12-29T12:28:15.432Z,91.06
2022-12-29T12:32:14.615Z,90.88
2022-12-29T12:36:28.472Z,90.85
2022-12-29T12:40:28.198Z,90.82
2022-12-29T12:44:47.045Z,90.81
2022-12-29T12:48:08.854Z,90.75
2022-12-29T12:52:27.192Z,90.75
2022-12-29T12:56:40.091Z,90.73
2022-12-29T13:01:12.420Z,90.75
2022-12-29T13:04:37.878Z,90.77
2022-12-29T13:08:56.211Z,90.76
2022-12-29T13:12:56.360Z,90.71
2022-12-29T13:17:04.560Z,90.74
2022-12-29T13:21:33.252Z,90.69
2022-12-29T13:25:39.295Z,90.60
2022-12-29T13:29:51.787Z,90.64
2022-12-29T13:33:58.577Z,90.75
2022-12-29T13:38:18.520Z,90.78
2022-12-29T13:42:19.148Z,90.67
2022-12-29T13:46:22.839Z,90.60
2022-12-29T13:50:23.281Z,90.51
2022-12-29T13:54:32.294Z,90.35
2022-12-29T13:58:35.590Z,90.14
2022-12-29T14:03:14.150Z,90.08
2022-12-29T14:06:15.402Z,90.20
2022-12-29T14:10:34.727Z,90.34
2022-12-29T14:14:47.758Z,90.41
2022-12-29T14:18:47.434Z,90.49
2022-12-29T14:23:05.757Z,90.51
2022-12-29T14:27:10.986Z,90.55
2022-12-29T14:31:16.507Z,90.58
2022-12-29T14:35:35.238Z,90.72
2022-12-29T14:39:34.940Z,90.98
2022-12-29T14:43:34.232Z,91.18
2022-12-29T14:47:39.539Z,91.28
2022-12-29T14:51:39.433Z,91.26
2022-12-29T14:55:57.581Z,91.27
2022-12-29T15:00:01.922Z,91.26
2022-12-29T15:04:06.648Z,91.27
2022-12-29T15:08:07.353Z,91.31
2022-12-29T15:12:25.859Z,91.31
2022-12-29T15:16:32.776Z,91.34
2022-12-29T15:20:32.738Z,91.43
2022-12-29T15:24:31.917Z,91.44
2022-12-29T15:28:57.719Z,91.46
2022-12-29T15:32:57.117Z,91.42
2022-12-29T15:37:26.019Z,91.46
2022-12-29T15:40:34.527Z,91.49
2022-12-29T15:44:38.849Z,91.54
2022-12-29T15:48:39.393Z,91.52
2022-12-29T15:52:40.504Z,91.51
2022-12-29T15:56:39.694Z,91.33
2022-12-29T16:00:39.311Z,91.14
2022-12-29T16:09:17.462Z,91.15
2022-12-29T16:13:22.557Z,91.14
2022-12-29T16:17:24.089Z,91.21
2022-12-29T16:21:31.071Z,91.21
2022-12-29T16:25:45.029Z,91.14
2022-12-29T16:34:31.650Z,91.09
2022-12-29T16:38:35.651Z,91.13
2022-12-29T16:42:37.522Z,91.19
2022-12-29T16:46:56.500Z,91.22
2022-12-29T16:51:18.339Z,91.21
2022-12-29T16:55:19.091Z,91.17
2022-12-29T16:59:33.780Z,91.18
2022-12-29T17:03:40.055Z,91.17
2022-12-29T17:07:40.635Z,91.30
2022-12-29T17:12:05.250Z,91.34
2022-12-29T17:16:09.559Z,91.32
2022-12-29T17:20:24.919Z,91.20
2022-12-29T17:24:24.455Z,91.05
2022-12-29T17:28:26.005Z,90.84
2022-12-29T17:32:25.194Z,90.58
2022-12-29T17:36:24.338Z,90.35
2022-12-29T17:40:37.821Z,90.15
2022-12-29T17:44:37.269Z,89.97
2022-12-29T17:48:36.574Z,89.78
2022-12-29T17:52:35.999Z,89.51
2022-12-29T17:56:35.077Z,89.30
2022-12-29T18:00:35.661Z,89.04
2022-12-29T18:04:35.255Z,88.96
2022-12-29T18:08:35.630Z,89.06
2022-12-29T18:12:39.450Z,89.13
2022-12-29T18:16:38.860Z,89.11
2022-12-29T18:20:39.224Z,89.17
2022-12-29T18:24:38.430Z,89.10
2022-12-29T18:28:37.521Z,89.00
2022-12-29T18:32:37.233Z,88.75
2022-12-29T18:36:36.900Z,88.62
2022-12-29T18:40:37.330Z,88.50
2022-12-29T18:44:37.309Z,88.47
2022-12-29T18:48:36.582Z,88.45
2022-12-29T18:52:36.293Z,88.55
2022-12-29T18:56:35.901Z,88.68
2022-12-29T19:00:35.409Z,88.79
2022-12-29T19:04:34.752Z,88.83
2022-12-29T19:08:33.971Z,88.86
2022-12-29T19:12:33.809Z,88.93
2022-12-29T19:16:35.626Z,89.02
2022-12-29T19:20:22.313Z,89.07
2022-12-29T19:24:22.037Z,89.19
2022-12-29T19:28:26.007Z,89.30
2022-12-29T19:32:25.435Z,89.35
2022-12-29T19:36:28.940Z,89.38
2022-12-29T19:40:30.379Z,89.44
2022-12-29T19:44:29.967Z,89.56
2022-12-29T19:48:43.103Z,89.85
2022-12-29T19:52:43.574Z,89.99
2022-12-29T19:56:44.585Z,90.21
2022-12-29T20:00:44.373Z,90.29
2022-12-29T20:04:44.015Z,90.38
2022-12-29T20:08:43.688Z,90.34
2022-12-29T20:12:43.108Z,90.25
2022-12-29T20:17:08.999Z,90.26
2022-12-29T20:21:03.865Z,90.28
2022-12-29T20:25:35.006Z,90.30
2022-12-29T20:29:23.224Z,90.34
2022-12-29T20:33:22.872Z,90.36
2022-12-29T20:37:22.398Z,90.42
2022-12-29T20:41:36.128Z,90.47
2022-12-29T20:45:35.178Z,90.45
2022-12-29T20:49:38.025Z,90.47
2022-12-29T20:53:38.566Z,90.53
2022-12-29T20:58:05.636Z,90.43
2022-12-29T21:02:00.662Z,90.35
2022-12-29T21:06:03.446Z,90.22
2022-12-29T21:10:09.380Z,90.10
2022-12-29T21:13:44.973Z,89.89
2022-12-29T21:17:44.699Z,89.75
2022-12-29T21:22:22.634Z,89.68
2022-12-29T21:36:54.569Z,89.87
2022-12-29T21:45:36.006Z,89.76
2022-12-29T21:49:41.513Z,89.62
2022-12-29T22:50:55.788Z,88.65
2022-12-29T22:53:56.537Z,88.65
2022-12-29T23:19:01.898Z,88.71
2022-12-29T23:22:08.745Z,88.76
2022-12-29T23:30:58.858Z,88.72
2022-12-29T23:34:42.865Z,88.73
2022-12-29T23:48:41.370Z,89.07
2022-12-29T23:51:40.903Z,89.13
2022-12-29T23:55:44.052Z,89.13
2022-12-29T23:59:43.351Z,89.14
